createdAt,value
2023-05-25T00:01:01.750Z,36.10
2023-05-25T00:01:54.209Z,36.08
2023-05-25T00:02:53.341Z,36.07
2023-05-25T00:03:53.275Z,36.07
2023-05-25T00:04:53.154Z,36.11
2023-05-25T00:05:53.117Z,36.04
2023-05-25T00:06:53.132Z,36.09
2023-05-25T00:07:53.135Z,36.07
2023-05-25T00:08:53.136Z,36.12
2023-05-25T00:09:53.097Z,36.05
2023-05-25T00:10:53.113Z,36.05
2023-05-25T00:11:53.110Z,36.03
2023-05-25T00:12:53.058Z,36.08
2023-05-25T00:13:53.068Z,36.11
2023-05-25T00:14:53.076Z,36.04
2023-05-25T00:15:53.079Z,36.06
2023-05-25T00:16:53.213Z,36.08
2023-05-25T00:17:53.123Z,36.07
2023-05-25T00:18:53.052Z,36.00
2023-05-25T00:19:53.103Z,36.08
2023-05-25T00:20:53.141Z,36.08
2023-05-25T00:21:53.013Z,36.05
2023-05-25T00:22:53.039Z,36.04
2023-05-25T00:23:53.103Z,36.05
2023-05-25T00:24:53.175Z,36.05
2023-05-25T00:25:53.101Z,36.04
2023-05-25T00:26:53.161Z,36.02
2023-05-25T00:27:53.185Z,36.05
2023-05-25T00:28:53.213Z,36.01
2023-05-25T00:29:53.227Z,36.04
2023-05-25T00:30:53.329Z,36.02
2023-05-25T00:31:53.295Z,36.06
2023-05-25T00:32:53.466Z,36.06
2023-05-25T00:33:53.360Z,36.04
2023-05-25T00:34:53.396Z,36.05
2023-05-25T00:35:53.422Z,36.05
2023-05-25T00:36:53.456Z,36.06
2023-05-25T00:37:53.495Z,36.04
2023-05-25T00:38:53.506Z,35.97
2023-05-25T00:39:53.558Z,36.00
2023-05-25T00:40:53.613Z,36.01
2023-05-25T00:41:53.625Z,36.02
2023-05-25T00:42:53.650Z,36.06
2023-05-25T00:43:53.689Z,36.04
2023-05-25T00:44:53.653Z,36.04
2023-05-25T00:45:53.716Z,36.01
2023-05-25T00:46:53.770Z,36.04
2023-05-25T00:47:53.840Z,36.02
2023-05-25T00:48:53.784Z,36.00
2023-05-25T00:49:53.837Z,36.04
2023-05-25T00:50:53.839Z,35.99
2023-05-25T00:51:53.871Z,35.99
2023-05-25T00:52:53.866Z,36.01
2023-05-25T00:53:53.880Z,36.00
2023-05-25T00:54:53.982Z,35.99
2023-05-25T00:55:53.973Z,35.97
2023-05-25T00:56:54.002Z,36.02
2023-05-25T00:57:54.036Z,35.99
2023-05-25T00:58:54.031Z,36.00
2023-05-25T00:59:54.057Z,35.98
2023-05-25T01:00:54.110Z,35.99
2023-05-25T01:01:54.176Z,36.01
2023-05-25T01:02:54.176Z,35.90
2023-05-25T01:03:54.380Z,35.94
2023-05-25T01:04:54.198Z,35.93
2023-05-25T01:05:54.253Z,35.94
2023-05-25T01:06:54.276Z,35.97
2023-05-25T01:07:54.309Z,35.92
2023-05-25T01:08:54.279Z,35.94
2023-05-25T01:09:54.304Z,35.93
2023-05-25T01:10:54.395Z,35.94
2023-05-25T01:11:54.395Z,35.96
2023-05-25T01:12:54.450Z,35.92
2023-05-25T01:13:54.473Z,35.92
2023-05-25T01:14:54.526Z,35.90
2023-05-25T01:15:54.543Z,35.90
2023-05-25T01:16:54.618Z,35.92
2023-05-25T01:17:54.561Z,35.86
2023-05-25T01:18:54.653Z,35.90
2023-05-25T01:20:08.319Z,35.89
2023-05-25T01:20:55.741Z,35.89
2023-05-25T01:21:54.665Z,35.89
2023-05-25T01:22:54.620Z,35.90
2023-05-25T01:23:54.610Z,35.87
2023-05-25T01:24:54.639Z,35.86
2023-05-25T01:25:54.596Z,35.84
2023-05-25T01:26:54.590Z,35.80
2023-05-25T01:27:54.612Z,35.81
2023-05-25T01:28:54.619Z,35.84
2023-05-25T01:29:54.622Z,35.80
2023-05-25T01:30:54.558Z,35.84
2023-05-25T01:31:54.576Z,35.80
2023-05-25T01:32:54.650Z,35.81
2023-05-25T01:33:54.538Z,35.77
2023-05-25T01:34:54.540Z,35.78
2023-05-25T01:35:54.557Z,35.80
2023-05-25T01:36:54.615Z,35.81
2023-05-25T01:37:54.645Z,35.82
2023-05-25T01:38:54.673Z,35.78
2023-05-25T01:39:54.791Z,35.82
2023-05-25T01:40:54.743Z,35.76
2023-05-25T01:41:54.814Z,35.80
2023-05-25T01:42:54.803Z,35.77
2023-05-25T01:43:54.864Z,35.78
2023-05-25T01:44:54.882Z,35.74
2023-05-25T01:45:54.904Z,35.81
2023-05-25T01:46:54.959Z,35.77
2023-05-25T01:47:55.023Z,35.80
2023-05-25T01:48:55.049Z,35.81
2023-05-25T01:49:55.057Z,35.77
2023-05-25T01:50:55.062Z,35.77
2023-05-25T01:51:55.151Z,35.78
2023-05-25T01:52:55.183Z,35.78
2023-05-25T01:53:55.234Z,35.76
2023-05-25T01:54:55.248Z,35.74
2023-05-25T01:55:55.251Z,35.76
2023-05-25T01:56:55.259Z,35.73
2023-05-25T01:57:55.314Z,35.77
2023-05-25T01:58:55.330Z,35.76
2023-05-25T01:59:55.355Z,35.72
2023-05-25T02:00:55.516Z,35.74
2023-05-25T02:01:55.598Z,35.72
2023-05-25T02:02:55.551Z,35.77
2023-05-25T02:03:55.581Z,35.73
2023-05-25T02:04:55.564Z,35.69
2023-05-25T02:05:55.624Z,35.71
2023-05-25T02:06:55.605Z,35.70
2023-05-25T02:07:55.696Z,35.70
2023-05-25T02:08:55.725Z,35.70
2023-05-25T02:09:55.730Z,35.68
2023-05-25T02:10:55.751Z,35.73
2023-05-25T02:11:55.826Z,35.70
2023-05-25T02:12:55.839Z,35.68
2023-05-25T02:13:55.879Z,35.68
2023-05-25T02:14:55.954Z,35.69
2023-05-25T02:15:56.060Z,35.66
2023-05-25T02:16:55.997Z,35.66
2023-05-25T02:17:56.118Z,35.68
2023-05-25T02:18:56.073Z,35.68
2023-05-25T02:19:56.179Z,35.65
2023-05-25T02:20:56.206Z,35.66
2023-05-25T02:21:56.251Z,35.65
2023-05-25T02:22:56.241Z,35.69
2023-05-25T02:23:56.330Z,35.66
2023-05-25T02:24:56.328Z,35.69
2023-05-25T02:25:56.380Z,35.67
2023-05-25T02:26:56.467Z,35.66
2023-05-25T02:27:56.442Z,35.62
2023-05-25T02:28:56.508Z,35.66
2023-05-25T02:29:56.557Z,35.63
2023-05-25T02:30:56.614Z,35.64
2023-05-25T02:31:56.644Z,35.61
2023-05-25T02:32:56.738Z,35.68
2023-05-25T02:33:56.719Z,35.62
2023-05-25T02:34:56.761Z,35.61
2023-05-25T02:35:56.827Z,35.60
2023-05-25T02:36:56.861Z,35.57
2023-05-25T02:37:56.877Z,35.61
2023-05-25T02:38:56.926Z,35.65
2023-05-25T02:39:56.997Z,35.62
2023-05-25T02:40:57.052Z,35.62
2023-05-25T02:41:57.060Z,35.59
2023-05-25T02:42:57.111Z,35.61
2023-05-25T02:43:57.184Z,35.64
2023-05-25T02:44:57.293Z,35.61
2023-05-25T02:45:57.243Z,35.60
2023-05-25T02:46:57.360Z,35.57
2023-05-25T02:47:57.371Z,35.62
2023-05-25T02:48:57.358Z,35.61
2023-05-25T02:49:57.436Z,35.60
2023-05-25T02:50:57.435Z,35.56
2023-05-25T02:51:57.538Z,35.57
2023-05-25T02:52:57.529Z,35.57
2023-05-25T02:53:57.595Z,35.59
2023-05-25T02:54:57.594Z,35.59
2023-05-25T02:55:57.658Z,35.57
2023-05-25T02:56:57.727Z,35.59
2023-05-25T02:57:57.727Z,35.59
2023-05-25T02:58:57.781Z,35.56
2023-05-25T02:59:57.769Z,35.58
2023-05-25T03:00:57.897Z,35.56
2023-05-25T03:01:57.889Z,35.56
2023-05-25T03:02:57.932Z,35.61
2023-05-25T03:03:58.016Z,35.57
2023-05-25T03:04:58.050Z,35.62
2023-05-25T03:05:58.028Z,35.52
2023-05-25T03:06:58.092Z,35.56
2023-05-25T03:07:58.121Z,35.58
2023-05-25T03:08:58.141Z,35.53
2023-05-25T03:09:58.313Z,35.54
2023-05-25T03:10:58.284Z,35.53
2023-05-25T03:11:58.337Z,35.53
2023-05-25T03:12:58.341Z,35.50
2023-05-25T03:13:58.391Z,35.52
2023-05-25T03:14:58.424Z,35.49
2023-05-25T03:15:58.463Z,35.55
2023-05-25T03:16:58.610Z,35.49
2023-05-25T03:17:58.657Z,35.50
2023-05-25T03:18:58.577Z,35.49
2023-05-25T03:19:58.837Z,35.50
2023-05-25T03:20:58.707Z,35.50
2023-05-25T03:21:58.838Z,35.51
2023-05-25T03:22:58.795Z,35.53
2023-05-25T03:23:58.838Z,35.45
2023-05-25T03:24:58.836Z,35.53
2023-05-25T03:25:58.881Z,35.49
2023-05-25T03:26:58.957Z,35.50
2023-05-25T03:27:58.953Z,35.45
2023-05-25T03:28:59.015Z,35.46
2023-05-25T03:29:59.072Z,35.49
2023-05-25T03:30:59.185Z,35.46
2023-05-25T03:31:59.185Z,35.53
2023-05-25T03:33:00.123Z,35.45
2023-05-25T03:33:59.208Z,35.49
2023-05-25T03:34:59.235Z,35.50
2023-05-25T03:35:59.315Z,35.49
2023-05-25T03:36:59.398Z,35.50
2023-05-25T03:37:59.390Z,35.46
2023-05-25T03:38:59.442Z,35.46
2023-05-25T03:39:59.504Z,35.51
2023-05-25T03:40:59.511Z,35.44
2023-05-25T03:41:59.624Z,35.46
2023-05-25T03:42:59.594Z,35.44
2023-05-25T03:43:59.680Z,35.45
2023-05-25T03:44:59.684Z,35.45
2023-05-25T03:45:59.806Z,35.42
2023-05-25T03:46:59.801Z,35.46
2023-05-25T03:47:59.851Z,35.44
2023-05-25T03:48:59.888Z,35.44
2023-05-25T03:49:59.927Z,35.41
2023-05-25T03:50:59.970Z,35.45
2023-05-25T03:52:00.151Z,35.37
2023-05-25T03:53:00.046Z,35.43
2023-05-25T03:54:00.099Z,35.44
2023-05-25T03:55:00.203Z,35.42
2023-05-25T03:56:00.177Z,35.40
2023-05-25T03:57:01.100Z,35.44
2023-05-25T03:58:00.297Z,35.44
2023-05-25T03:59:00.323Z,35.40
2023-05-25T04:00:00.386Z,35.44
2023-05-25T04:01:00.402Z,35.40
2023-05-25T04:02:00.491Z,35.37
2023-05-25T04:03:00.871Z,35.39
2023-05-25T04:04:00.676Z,35.37
2023-05-25T04:05:00.566Z,35.38
2023-05-25T04:06:00.766Z,35.40
2023-05-25T04:07:00.713Z,35.37
2023-05-25T04:08:00.738Z,35.36
2023-05-25T04:09:00.808Z,35.32
2023-05-25T04:10:00.832Z,35.37
2023-05-25T04:11:00.862Z,35.37
2023-05-25T04:12:00.899Z,35.33
2023-05-25T04:13:00.986Z,35.32
2023-05-25T04:14:01.061Z,35.35
2023-05-25T04:15:01.073Z,35.36
2023-05-25T04:16:01.096Z,35.38
2023-05-25T04:17:01.142Z,35.37
2023-05-25T04:18:01.194Z,35.36
2023-05-25T04:19:01.412Z,35.33
2023-05-25T04:20:01.350Z,35.35
2023-05-25T04:21:01.327Z,35.33
2023-05-25T04:22:01.377Z,35.33
2023-05-25T04:23:01.410Z,35.33
2023-05-25T04:24:01.452Z,35.31
2023-05-25T04:25:01.538Z,35.30
2023-05-25T04:26:01.567Z,35.28
2023-05-25T04:27:01.613Z,35.28
2023-05-25T04:28:01.614Z,35.27
2023-05-25T04:29:01.656Z,35.28
2023-05-25T04:30:01.688Z,35.27
2023-05-25T04:31:01.750Z,35.28
2023-05-25T04:32:01.903Z,35.21
2023-05-25T04:33:01.949Z,35.30
2023-05-25T04:34:01.899Z,35.25
2023-05-25T04:35:01.932Z,35.30
2023-05-25T04:36:01.969Z,35.22
2023-05-25T04:37:02.029Z,35.25
2023-05-25T04:38:02.049Z,35.21
2023-05-25T04:39:02.050Z,35.21
2023-05-25T04:40:02.135Z,35.28
2023-05-25T04:41:02.125Z,35.25
2023-05-25T04:42:02.183Z,35.21
2023-05-25T04:43:02.236Z,35.24
2023-05-25T04:45:02.220Z,35.21
2023-05-25T04:46:02.331Z,35.19
2023-05-25T04:47:02.211Z,35.18
2023-05-25T04:48:02.250Z,35.18
2023-05-25T04:49:02.269Z,35.19
2023-05-25T04:50:02.227Z,35.18
2023-05-25T04:51:02.188Z,35.14
2023-05-25T04:52:02.146Z,35.13
2023-05-25T04:53:02.164Z,35.17
2023-05-25T04:54:02.161Z,35.16
2023-05-25T04:55:02.155Z,35.18
2023-05-25T04:56:02.162Z,35.15
2023-05-25T04:57:02.128Z,35.13
2023-05-25T04:58:02.106Z,35.12
2023-05-25T04:59:02.133Z,35.15
2023-05-25T05:00:02.142Z,35.17
2023-05-25T05:01:02.150Z,35.20
2023-05-25T05:02:02.164Z,35.11
2023-05-25T05:03:02.240Z,35.11
2023-05-25T05:04:02.113Z,35.10
2023-05-25T05:05:02.084Z,35.07
2023-05-25T05:06:02.241Z,35.05
2023-05-25T05:07:02.088Z,35.06
2023-05-25T05:08:02.067Z,35.05
2023-05-25T05:09:02.053Z,35.04
2023-05-25T05:10:02.085Z,35.01
2023-05-25T05:11:02.019Z,34.96
2023-05-25T05:12:01.993Z,34.99
2023-05-25T05:13:02.034Z,35.02
2023-05-25T05:14:02.019Z,34.98
2023-05-25T05:15:01.998Z,35.02
2023-05-25T05:16:01.999Z,34.94
2023-05-25T05:17:02.028Z,34.97
2023-05-25T05:18:01.971Z,34.97
2023-05-25T05:19:01.984Z,34.93
2023-05-25T05:20:02.069Z,34.94
2023-05-25T05:21:02.109Z,34.97
2023-05-25T05:22:01.955Z,34.95
2023-05-25T05:23:01.948Z,34.99
2023-05-25T05:24:01.927Z,34.93
2023-05-25T05:25:01.961Z,34.92
2023-05-25T05:26:01.910Z,34.98
2023-05-25T05:27:03.992Z,34.95
2023-05-25T05:28:01.946Z,34.98
2023-05-25T05:29:01.937Z,34.93
2023-05-25T05:30:01.893Z,34.97
2023-05-25T05:31:01.911Z,34.95
2023-05-25T05:32:01.906Z,34.92
2023-05-25T05:33:02.014Z,35.00
2023-05-25T05:34:01.933Z,35.40
2023-05-25T05:35:01.824Z,35.21
2023-05-25T05:36:01.843Z,35.14
2023-05-25T05:37:02.353Z,35.21
2023-05-25T05:38:02.153Z,35.41
2023-05-25T05:39:01.877Z,35.52
2023-05-25T05:40:01.964Z,35.46
2023-05-25T05:41:01.785Z,36.02
2023-05-25T05:42:01.838Z,35.82
2023-05-25T05:43:01.807Z,35.87
2023-05-25T05:44:01.828Z,35.77
2023-05-25T05:45:01.792Z,35.89
2023-05-25T05:46:01.861Z,36.64
2023-05-25T05:47:02.099Z,36.57
2023-05-25T05:48:01.827Z,36.64
2023-05-25T05:49:01.780Z,36.83
2023-05-25T05:50:01.718Z,36.94
2023-05-25T05:51:01.843Z,36.73
2023-05-25T05:52:01.747Z,36.61
2023-05-25T05:53:01.731Z,36.65
2023-05-25T05:54:01.878Z,36.77
2023-05-25T05:55:01.706Z,36.79
2023-05-25T05:56:01.706Z,36.76
2023-05-25T05:57:01.726Z,37.15
2023-05-25T05:58:01.721Z,37.25
2023-05-25T05:59:01.696Z,37.18
2023-05-25T06:00:01.705Z,37.27
2023-05-25T06:01:01.696Z,37.22
2023-05-25T06:02:01.750Z,37.15
2023-05-25T06:03:01.736Z,37.09
2023-05-25T06:04:01.693Z,37.15
2023-05-25T06:05:01.652Z,36.99
2023-05-25T06:06:01.958Z,37.10
2023-05-25T06:07:01.950Z,37.06
2023-05-25T06:08:01.835Z,37.10
2023-05-25T06:09:01.650Z,37.12
2023-05-25T06:10:02.414Z,37.12
2023-05-25T06:11:01.753Z,37.08
2023-05-25T06:12:01.660Z,37.13
2023-05-25T06:13:01.647Z,37.04
2023-05-25T06:14:01.699Z,37.03
2023-05-25T06:15:01.577Z,36.99
2023-05-25T06:16:01.723Z,36.99
2023-05-25T06:17:01.832Z,37.06
2023-05-25T06:18:01.632Z,37.20
2023-05-25T06:19:01.720Z,37.15
2023-05-25T06:20:01.797Z,37.06
2023-05-25T06:21:01.532Z,37.10
2023-05-25T06:22:01.516Z,37.32
2023-05-25T06:23:01.543Z,37.23
2023-05-25T06:24:01.489Z,37.21
2023-05-25T06:25:01.737Z,37.14
2023-05-25T06:26:01.501Z,37.26
2023-05-25T06:27:01.529Z,37.23
2023-05-25T06:28:01.585Z,37.18
2023-05-25T06:29:01.597Z,37.16
2023-05-25T06:30:01.684Z,37.29
2023-05-25T06:31:01.871Z,37.21
2023-05-25T06:32:01.744Z,37.08
2023-05-25T06:33:01.785Z,37.08
2023-05-25T06:34:01.813Z,36.86
2023-05-25T06:35:01.841Z,36.93
2023-05-25T06:36:01.931Z,37.21
2023-05-25T06:37:02.025Z,37.06
2023-05-25T06:38:02.692Z,37.11
2023-05-25T06:39:02.072Z,37.09
2023-05-25T06:40:02.169Z,36.99
2023-05-25T06:41:02.223Z,37.25
2023-05-25T06:42:02.252Z,36.90
2023-05-25T06:43:02.325Z,36.73
2023-05-25T06:44:02.409Z,36.63
2023-05-25T06:45:02.403Z,36.42
2023-05-25T06:46:02.576Z,36.39
2023-05-25T06:47:02.529Z,36.23
2023-05-25T06:48:02.593Z,35.81
2023-05-25T06:49:02.531Z,35.62
2023-05-25T06:50:02.546Z,35.65
2023-05-25T06:51:02.551Z,35.24
2023-05-25T06:52:02.562Z,35.68
2023-05-25T06:53:02.588Z,35.49
2023-05-25T06:54:02.639Z,35.43
2023-05-25T06:55:02.676Z,35.55
2023-05-25T06:56:02.735Z,35.56
2023-05-25T06:57:02.763Z,35.58
2023-05-25T06:58:02.873Z,35.71
2023-05-25T06:59:02.913Z,35.51
2023-05-25T07:00:02.910Z,35.54
2023-05-25T07:01:03.065Z,35.65
2023-05-25T07:02:03.044Z,35.68
2023-05-25T07:03:03.076Z,35.97
2023-05-25T07:04:03.122Z,36.18
2023-05-25T07:05:03.199Z,36.14
2023-05-25T07:06:03.215Z,36.09
2023-05-25T07:07:03.278Z,36.03
2023-05-25T07:08:03.397Z,35.94
2023-05-25T07:09:03.367Z,35.76
2023-05-25T07:10:03.363Z,36.08
2023-05-25T07:11:03.415Z,36.12
2023-05-25T07:12:03.597Z,35.71
2023-05-25T07:13:03.503Z,35.94
2023-05-25T07:14:03.525Z,35.68
2023-05-25T07:15:03.637Z,35.70
2023-05-25T07:16:03.676Z,35.74
2023-05-25T07:17:03.645Z,35.57
2023-05-25T07:18:03.865Z,35.74
2023-05-25T07:19:03.748Z,35.70
2023-05-25T07:20:03.840Z,35.58
2023-05-25T07:21:03.820Z,35.68
2023-05-25T07:22:04.003Z,35.47
2023-05-25T07:23:03.904Z,35.43
2023-05-25T07:24:04.799Z,35.67
2023-05-25T07:25:04.098Z,35.63
2023-05-25T07:26:05.703Z,35.76
2023-05-25T07:27:04.135Z,35.81
2023-05-25T07:28:04.171Z,35.72
2023-05-25T07:29:04.252Z,35.66
2023-05-25T07:30:04.261Z,35.63
2023-05-25T07:31:04.376Z,35.63
2023-05-25T07:32:04.455Z,36.16
2023-05-25T07:33:04.874Z,35.59
2023-05-25T07:34:04.498Z,35.34
2023-05-25T07:35:04.523Z,35.27
2023-05-25T07:36:04.617Z,35.18
2023-05-25T07:37:04.811Z,35.23
2023-05-25T07:38:04.708Z,35.34
2023-05-25T07:39:04.797Z,35.71
2023-05-25T07:40:04.852Z,35.68
2023-05-25T07:41:04.845Z,36.04
2023-05-25T07:42:04.983Z,35.95
2023-05-25T07:43:06.254Z,36.01
2023-05-25T07:44:04.970Z,36.20
2023-05-25T07:45:04.952Z,36.23
2023-05-25T07:46:04.968Z,36.22
2023-05-25T07:47:05.022Z,36.23
2023-05-25T07:48:05.015Z,36.32
2023-05-25T07:49:04.956Z,36.45
2023-05-25T07:50:04.906Z,36.46
2023-05-25T07:51:04.935Z,36.47
2023-05-25T07:52:05.030Z,36.49
2023-05-25T07:53:05.337Z,36.59
2023-05-25T07:54:04.855Z,36.87
2023-05-25T07:55:04.970Z,36.76
2023-05-25T07:56:04.880Z,36.71
2023-05-25T07:57:04.984Z,36.83
2023-05-25T07:58:04.881Z,36.77
2023-05-25T07:59:04.864Z,36.95
2023-05-25T08:00:04.837Z,36.97
2023-05-25T08:01:04.876Z,37.03
2023-05-25T08:02:04.915Z,37.07
2023-05-25T08:03:05.077Z,37.19
2023-05-25T08:04:04.853Z,37.25
2023-05-25T08:05:04.882Z,37.31
2023-05-25T08:06:04.809Z,37.41
2023-05-25T08:07:04.815Z,37.44
2023-05-25T08:08:04.802Z,37.57
2023-05-25T08:09:04.748Z,37.62
2023-05-25T08:10:04.845Z,37.71
2023-05-25T08:11:04.806Z,37.79
2023-05-25T08:12:24.058Z,37.79
2023-05-25T08:13:05.911Z,38.01
2023-05-25T08:14:04.766Z,37.93
2023-05-25T08:15:04.748Z,37.94
2023-05-25T08:16:04.767Z,38.01
2023-05-25T08:17:04.792Z,38.08
2023-05-25T08:18:04.824Z,38.18
2023-05-25T08:19:04.695Z,38.26
2023-05-25T08:20:04.744Z,38.29
2023-05-25T08:21:04.694Z,38.39
2023-05-25T08:22:04.717Z,38.43
2023-05-25T08:23:04.698Z,38.47
2023-05-25T08:24:04.843Z,38.55
2023-05-25T08:25:04.743Z,38.67
2023-05-25T08:26:15.574Z,38.75
2023-05-25T08:27:05.681Z,38.83
2023-05-25T08:28:04.604Z,38.89
2023-05-25T08:29:04.947Z,38.87
2023-05-25T08:30:04.630Z,39.17
2023-05-25T08:31:04.687Z,38.92
2023-05-25T08:32:04.713Z,38.91
2023-05-25T08:33:04.609Z,38.73
2023-05-25T08:34:04.604Z,38.55
2023-05-25T08:35:04.638Z,38.50
2023-05-25T08:36:04.562Z,38.47
2023-05-25T08:37:04.594Z,38.39
2023-05-25T08:38:04.741Z,38.34
2023-05-25T08:39:04.546Z,38.27
2023-05-25T08:40:04.628Z,38.21
2023-05-25T08:41:04.559Z,38.17
2023-05-25T08:42:04.584Z,38.12
2023-05-25T08:43:04.574Z,37.98
2023-05-25T08:44:04.527Z,37.92
2023-05-25T08:45:04.541Z,37.94
2023-05-25T08:46:04.539Z,37.84
2023-05-25T08:47:04.529Z,37.92
2023-05-25T08:48:04.554Z,37.96
2023-05-25T08:49:04.567Z,38.02
2023-05-25T08:50:04.585Z,38.21
2023-05-25T08:51:04.500Z,38.22
2023-05-25T08:52:04.528Z,38.25
2023-05-25T08:53:04.593Z,38.25
2023-05-25T08:54:04.529Z,38.20
2023-05-25T08:55:04.835Z,37.93
2023-05-25T08:56:04.596Z,38.06
2023-05-25T08:57:04.616Z,38.06
2023-05-25T08:58:04.609Z,38.03
2023-05-25T08:59:06.751Z,38.07
2023-05-25T09:00:04.889Z,38.18
2023-05-25T09:01:04.743Z,38.15
2023-05-25T09:02:04.794Z,38.20
2023-05-25T09:03:04.770Z,38.27
2023-05-25T09:04:04.796Z,38.24
2023-05-25T09:05:04.726Z,38.35
2023-05-25T09:06:04.766Z,38.31
2023-05-25T09:07:10.552Z,38.39
2023-05-25T09:08:05.812Z,38.40
2023-05-25T09:09:04.736Z,38.46
2023-05-25T09:10:04.719Z,38.53
2023-05-25T09:11:04.967Z,38.56
2023-05-25T09:12:04.700Z,38.56
2023-05-25T09:13:19.475Z,38.59
2023-05-25T09:14:05.699Z,38.61
2023-05-25T09:15:04.758Z,38.76
2023-05-25T09:16:04.672Z,38.84
2023-05-25T09:17:04.678Z,38.88
2023-05-25T09:18:05.409Z,38.93
2023-05-25T09:19:04.646Z,39.03
2023-05-25T09:20:04.704Z,39.10
2023-05-25T09:21:04.852Z,39.12
2023-05-25T09:22:14.874Z,39.15
2023-05-25T09:23:05.632Z,39.30
2023-05-25T09:24:04.628Z,39.40
2023-05-25T09:25:04.634Z,39.48
2023-05-25T09:26:04.633Z,39.46
2023-05-25T09:27:04.599Z,39.46
2023-05-25T09:28:17.652Z,39.54
2023-05-25T09:29:05.589Z,39.59
2023-05-25T09:30:04.585Z,39.55
2023-05-25T09:31:04.587Z,39.60
2023-05-25T09:32:04.656Z,39.67
2023-05-25T09:33:04.650Z,39.70
2023-05-25T09:34:04.579Z,36.92
2023-05-25T09:35:04.516Z,36.87
2023-05-25T09:36:04.621Z,36.26
2023-05-25T09:37:04.753Z,36.53
2023-05-25T09:38:04.780Z,36.74
2023-05-25T09:39:04.651Z,36.67
2023-05-25T09:40:04.536Z,36.80
2023-05-25T09:41:04.518Z,36.73
2023-05-25T09:42:04.538Z,37.02
2023-05-25T09:43:04.572Z,37.17
2023-05-25T09:44:10.909Z,36.81
2023-05-25T09:45:05.607Z,36.62
2023-05-25T09:46:04.613Z,36.33
2023-05-25T09:47:04.594Z,35.72
2023-05-25T09:48:04.717Z,35.60
2023-05-25T09:49:04.612Z,35.45
2023-05-25T09:50:04.568Z,35.30
2023-05-25T09:51:04.541Z,35.37
2023-05-25T09:52:04.575Z,35.26
2023-05-25T09:53:04.538Z,35.31
2023-05-25T09:54:04.537Z,35.24
2023-05-25T09:55:04.539Z,35.20
2023-05-25T09:56:04.562Z,35.32
2023-05-25T09:57:04.482Z,35.50
2023-05-25T09:58:04.557Z,35.67
2023-05-25T09:59:04.547Z,35.78
2023-05-25T10:00:04.493Z,35.79
2023-05-25T10:01:04.549Z,35.94
2023-05-25T10:02:04.568Z,36.07
2023-05-25T10:03:04.611Z,36.09
2023-05-25T10:04:05.669Z,36.18
2023-05-25T10:05:04.831Z,36.25
2023-05-25T10:06:04.704Z,36.34
2023-05-25T10:07:04.745Z,36.53
2023-05-25T10:08:04.845Z,36.52
2023-05-25T10:09:04.844Z,36.59
2023-05-25T10:10:05.030Z,36.55
2023-05-25T10:11:04.935Z,36.62
2023-05-25T10:12:04.952Z,36.68
2023-05-25T10:13:04.919Z,36.79
2023-05-25T10:14:04.974Z,36.81
2023-05-25T10:15:05.012Z,36.90
2023-05-25T10:16:05.012Z,36.93
2023-05-25T10:17:04.991Z,37.00
2023-05-25T10:18:05.053Z,37.07
2023-05-25T10:19:05.030Z,37.07
2023-05-25T10:20:05.051Z,37.10
2023-05-25T10:21:06.017Z,37.27
2023-05-25T10:22:04.991Z,37.19
2023-05-25T10:23:05.015Z,37.15
2023-05-25T10:24:05.040Z,36.32
2023-05-25T10:25:05.005Z,36.39
2023-05-25T10:26:05.076Z,36.29
2023-05-25T10:27:14.708Z,36.19
2023-05-25T10:28:07.006Z,36.12
2023-05-25T10:29:05.070Z,36.09
2023-05-25T10:30:05.104Z,36.24
2023-05-25T10:31:05.104Z,36.33
2023-05-25T10:32:05.137Z,36.23
2023-05-25T10:33:05.089Z,36.37
2023-05-25T10:34:05.035Z,36.61
2023-05-25T10:35:05.029Z,36.72
2023-05-25T10:37:04.985Z,36.96
2023-05-25T10:38:05.029Z,37.16
2023-05-25T10:39:04.960Z,37.21
2023-05-25T10:40:04.971Z,37.29
2023-05-25T10:41:04.954Z,37.38
2023-05-25T10:42:05.075Z,37.50
2023-05-25T10:43:04.959Z,37.58
2023-05-25T10:44:04.941Z,37.57
2023-05-25T10:45:04.938Z,37.67
2023-05-25T10:46:04.912Z,37.84
2023-05-25T10:47:05.010Z,37.86
2023-05-25T10:48:04.945Z,37.95
2023-05-25T10:49:04.888Z,37.97
2023-05-25T10:50:04.863Z,38.05
2023-05-25T10:51:04.866Z,38.10
2023-05-25T10:52:04.842Z,38.10
2023-05-25T10:53:04.857Z,38.06
2023-05-25T10:54:04.870Z,38.08
2023-05-25T10:55:04.893Z,38.15
2023-05-25T10:56:04.848Z,38.44
2023-05-25T10:57:04.866Z,38.27
2023-05-25T10:58:04.817Z,38.33
2023-05-25T10:59:04.818Z,38.24
2023-05-25T11:00:04.804Z,38.25
2023-05-25T11:01:05.084Z,38.28
2023-05-25T11:02:06.159Z,38.18
2023-05-25T11:03:04.891Z,38.26
2023-05-25T11:04:04.954Z,38.20
2023-05-25T11:05:04.823Z,38.16
2023-05-25T11:06:04.776Z,38.17
2023-05-25T11:07:04.809Z,38.20
2023-05-25T11:08:06.295Z,38.23
2023-05-25T11:09:04.764Z,38.06
2023-05-25T11:10:04.941Z,38.05
2023-05-25T11:11:04.768Z,38.10
2023-05-25T11:12:04.754Z,38.10
2023-05-25T11:13:04.714Z,37.73
2023-05-25T11:14:04.697Z,37.74
2023-05-25T11:15:04.964Z,37.38
2023-05-25T11:16:04.706Z,37.60
2023-05-25T11:17:04.742Z,37.14
2023-05-25T11:18:04.777Z,36.89
2023-05-25T11:19:04.754Z,36.76
2023-05-25T11:20:04.837Z,36.65
2023-05-25T11:21:04.773Z,36.35
2023-05-25T11:22:07.288Z,36.16
2023-05-25T11:23:05.441Z,36.75
2023-05-25T11:24:04.895Z,36.65
2023-05-25T11:25:04.953Z,36.68
2023-05-25T11:26:04.938Z,36.59
2023-05-25T11:27:04.888Z,36.56
2023-05-25T11:28:04.951Z,36.52
2023-05-25T11:29:04.931Z,36.50
2023-05-25T11:30:04.902Z,36.54
2023-05-25T11:31:04.981Z,36.54
2023-05-25T11:32:04.942Z,36.52
2023-05-25T11:33:04.964Z,36.51
2023-05-25T11:34:05.065Z,36.55
2023-05-25T11:35:04.998Z,36.52
2023-05-25T11:36:05.038Z,36.49
2023-05-25T11:37:05.125Z,36.49
2023-05-25T11:38:05.035Z,36.47
2023-05-25T11:39:13.923Z,36.50
2023-05-25T11:40:06.054Z,36.46
2023-05-25T11:41:05.053Z,36.49
2023-05-25T11:42:05.056Z,36.49
2023-05-25T11:43:05.139Z,36.49
2023-05-25T11:44:05.081Z,36.47
2023-05-25T11:45:05.135Z,36.47
2023-05-25T11:46:05.058Z,36.45
2023-05-25T11:47:05.027Z,36.42
2023-05-25T11:48:05.033Z,36.45
2023-05-25T11:49:05.004Z,36.41
2023-05-25T11:50:05.016Z,36.42
2023-05-25T11:51:05.006Z,36.43
2023-05-25T11:52:04.995Z,36.36
2023-05-25T11:53:05.002Z,36.40
2023-05-25T11:54:05.008Z,36.42
2023-05-25T11:55:04.984Z,36.39
2023-05-25T11:56:08.314Z,36.40
2023-05-25T11:57:04.971Z,36.37
2023-05-25T11:58:05.002Z,36.37
2023-05-25T11:59:04.927Z,36.31
2023-05-25T12:00:04.943Z,36.34
2023-05-25T12:01:04.941Z,36.31
2023-05-25T12:02:04.938Z,36.38
2023-05-25T12:03:04.953Z,36.36
2023-05-25T12:04:05.006Z,36.29
2023-05-25T12:05:04.926Z,36.30
2023-05-25T12:06:04.874Z,36.32
2023-05-25T12:07:04.929Z,36.26
2023-05-25T12:08:04.887Z,36.29
2023-05-25T12:09:04.855Z,36.30
2023-05-25T12:10:04.850Z,36.28
2023-05-25T12:11:04.861Z,36.26
2023-05-25T12:12:04.838Z,36.31
2023-05-25T12:13:04.863Z,36.28
2023-05-25T12:14:04.831Z,36.25
2023-05-25T12:15:04.779Z,36.25
2023-05-25T12:16:04.896Z,36.26
2023-05-25T12:17:04.902Z,36.25
2023-05-25T12:18:05.006Z,36.25
2023-05-25T12:19:04.802Z,36.22
2023-05-25T12:20:04.949Z,36.22
2023-05-25T12:21:04.772Z,36.21
2023-05-25T12:22:04.779Z,36.26
2023-05-25T12:23:04.755Z,36.24
2023-05-25T12:24:04.756Z,36.23
2023-05-25T12:25:04.768Z,36.23
2023-05-25T12:26:04.761Z,36.21
2023-05-25T12:27:04.734Z,36.21
2023-05-25T12:28:04.734Z,36.18
2023-05-25T12:29:04.683Z,36.19
2023-05-25T12:30:04.728Z,36.20
2023-05-25T12:31:04.770Z,36.16
2023-05-25T12:32:04.707Z,36.14
2023-05-25T12:33:04.941Z,36.15
2023-05-25T12:34:04.697Z,36.09
2023-05-25T12:35:04.692Z,36.08
2023-05-25T12:36:04.691Z,36.08
2023-05-25T12:37:04.641Z,36.08
2023-05-25T12:38:04.632Z,35.98
2023-05-25T12:39:04.653Z,36.02
2023-05-25T12:40:04.825Z,35.99
2023-05-25T12:41:04.637Z,36.03
2023-05-25T12:42:04.619Z,36.00
2023-05-25T12:43:04.655Z,35.97
2023-05-25T12:44:04.627Z,35.92
2023-05-25T12:45:04.633Z,35.89
2023-05-25T12:46:04.638Z,35.81
2023-05-25T12:47:04.661Z,35.80
2023-05-25T12:48:04.597Z,35.80
2023-05-25T12:49:04.597Z,35.78
2023-05-25T12:50:04.600Z,35.76
2023-05-25T12:51:04.599Z,35.69
2023-05-25T12:52:04.527Z,35.67
2023-05-25T12:53:04.548Z,35.64
2023-05-25T12:54:04.522Z,35.60
2023-05-25T12:55:04.524Z,35.58